sensor_id;sensor_type;location;lat;lon;timestamp;pressure;altitude;pressure_sealevel;temperature;humidity
56582;BME280;42463;52.214;21.238;2023-12-20T01:58:11;99458.19;;;6.86;88.37
56582;BME280;42463;52.214;21.238;2023-12-20T02:03:34;99452.48;;;6.86;88.59
56582;BME280;42463;52.214;21.238;2023-12-20T02:05:41;99451.88;;;6.85;88.72
56582;BME280;42463;52.214;21.238;2023-12-20T02:07:48;99454.34;;;6.84;88.40
56582;BME280;42463;52.214;21.238;2023-12-20T02:09:55;99452.56;;;6.84;88.68
56582;BME280;42463;52.214;21.238;2023-12-20T02:12:02;99456.39;;;6.84;88.73
56582;BME280;42463;52.214;21.238;2023-12-20T02:14:08;99452.23;;;6.83;88.79
56582;BME280;42463;52.214;21.238;2023-12-20T02:16:14;99450.45;;;6.83;88.86
56582;BME280;42463;52.214;21.238;2023-12-20T02:18:21;99443.59;;;6.82;88.70
56582;BME280;42463;52.214;21.238;2023-12-20T02:20:27;99442.98;;;6.82;88.81
56582;BME280;42463;52.214;21.238;2023-12-20T02:22:34;99440.34;;;6.81;88.92
56582;BME280;42463;52.214;21.238;2023-12-20T02:24:40;99447.66;;;6.79;88.68
56582;BME280;42463;52.214;21.238;2023-12-20T02:26:47;99444.42;;;6.79;88.91
56582;BME280;42463;52.214;21.238;2023-12-20T02:28:53;99443.39;;;6.78;88.98
56582;BME280;42463;52.214;21.238;2023-12-20T02:31:00;99444.48;;;6.79;88.89
56582;BME280;42463;52.214;21.238;2023-12-20T02:33:10;99443.55;;;6.79;89.07
56582;BME280;42463;52.214;21.238;2023-12-20T02:35:17;99439.90;;;6.80;89.20
56582;BME280;42463;52.214;21.238;2023-12-20T02:37:24;99436.77;;;6.80;88.87
56582;BME280;42463;52.214;21.238;2023-12-20T02:39:30;99434.45;;;6.79;88.65
56582;BME280;42463;52.214;21.238;2023-12-20T02:41:37;99422.48;;;6.79;88.82
56582;BME280;42463;52.214;21.238;2023-12-20T02:43:43;99423.85;;;6.81;88.78
56582;BME280;42463;52.214;21.238;2023-12-20T02:45:49;99430.10;;;6.81;88.76
56582;BME280;42463;52.214;21.238;2023-12-20T02:47:55;99426.66;;;6.81;88.65
56582;BME280;42463;52.214;21.238;2023-12-20T02:50:03;99419.52;;;6.79;88.59
56582;BME280;42463;52.214;21.238;2023-12-20T02:52:09;99416.28;;;6.79;88.58
56582;BME280;42463;52.214;21.238;2023-12-20T02:54:16;99414.75;;;6.77;88.42
56582;BME280;42463;52.214;21.238;2023-12-20T02:56:22;99413.98;;;6.76;88.49
56582;BME280;42463;52.214;21.238;2023-12-20T02:58:30;99418.14;;;6.76;88.65
56582;BME280;42463;52.214;21.238;2023-12-20T03:00:37;99412.98;;;6.78;88.57
56582;BME280;42463;52.214;21.238;2023-12-20T03:02:43;99409.33;;;6.80;88.63
56582;BME280;42463;52.214;21.238;2023-12-20T03:04:50;99411.88;;;6.80;88.58
56582;BME280;42463;52.214;21.238;2023-12-20T03:06:57;99412.36;;;6.81;88.38
56582;BME280;42463;52.214;21.238;2023-12-20T03:09:04;99406.08;;;6.83;88.40
56582;BME280;42463;52.214;21.238;2023-12-20T03:11:11;99403.99;;;6.84;88.55
56582;BME280;42463;52.214;21.238;2023-12-20T03:13:18;99404.98;;;6.86;88.27
56582;BME280;42463;52.214;21.238;2023-12-20T03:15:25;99401.48;;;6.87;88.28
56582;BME280;42463;52.214;21.238;2023-12-20T03:17:32;99402.03;;;6.89;88.35
56582;BME280;42463;52.214;21.238;2023-12-20T03:19:38;99400.33;;;6.90;88.27
56582;BME280;42463;52.214;21.238;2023-12-20T03:21:47;99402.35;;;6.93;88.48
56582;BME280;42463;52.214;21.238;2023-12-20T03:23:53;99393.16;;;6.97;88.29
56582;BME280;42463;52.214;21.238;2023-12-20T03:26:00;99392.36;;;6.99;88.16
56582;BME280;42463;52.214;21.238;2023-12-20T03:28:06;99394.38;;;7.01;88.17
56582;BME280;42463;52.214;21.238;2023-12-20T03:30:14;99398.67;;;7.04;88.00
56582;BME280;42463;52.214;21.238;2023-12-20T03:32:20;99407.90;;;7.05;87.74
56582;BME280;42463;52.214;21.238;2023-12-20T03:34:26;99408.88;;;7.04;87.60
56582;BME280;42463;52.214;21.238;2023-12-20T03:36:33;99412.20;;;7.03;87.40
56582;BME280;42463;52.214;21.238;2023-12-20T03:38:40;99404.16;;;7.02;87.42
56582;BME280;42463;52.214;21.238;2023-12-20T03:40:47;99402.27;;;7.01;87.49
56582;BME280;42463;52.214;21.238;2023-12-20T03:42:53;99398.23;;;7.03;87.59
56582;BME280;42463;52.214;21.238;2023-12-20T03:45:00;99396.90;;;7.05;87.70
56582;BME280;42463;52.214;21.238;2023-12-20T03:47:06;99398.25;;;7.06;87.47
56582;BME280;42463;52.214;21.238;2023-12-20T03:49:13;99392.54;;;7.05;87.45
56582;BME280;42463;52.214;21.238;2023-12-20T03:51:20;99389.08;;;7.03;87.32
56582;BME280;42463;52.214;21.238;2023-12-20T03:53:29;99392.24;;;7.02;87.22
56582;BME280;42463;52.214;21.238;2023-12-20T03:55:36;99393.84;;;6.99;87.06
56582;BME280;42463;52.214;21.238;2023-12-20T03:57:43;99390.42;;;6.98;87.28
56582;BME280;42463;52.214;21.238;2023-12-20T03:59:50;99395.95;;;6.95;87.12
56582;BME280;42463;52.214;21.238;2023-12-20T04:01:56;99396.83;;;6.91;87.25
56582;BME280;42463;52.214;21.238;2023-12-20T04:04:04;99399.39;;;6.88;87.42
56582;BME280;42463;52.214;21.238;2023-12-20T04:06:18;99394.58;;;6.86;87.63
56582;BME280;42463;52.214;21.238;2023-12-20T04:08:25;99386.56;;;6.84;87.56
56582;BME280;42463;52.214;21.238;2023-12-20T04:10:31;99380.59;;;6.84;87.90
56582;BME280;42463;52.214;21.238;2023-12-20T04:12:38;99382.17;;;6.87;88.08
56582;BME280;42463;52.214;21.238;2023-12-20T04:14:44;99384.18;;;6.88;88.00
56582;BME280;42463;52.214;21.238;2023-12-20T04:16:51;99389.79;;;6.88;87.86
56582;BME280;42463;52.214;21.238;2023-12-20T04:18:57;99388.05;;;6.86;87.70
56582;BME280;42463;52.214;21.238;2023-12-20T04:21:04;99390.04;;;6.85;87.78
56582;BME280;42463;52.214;21.238;2023-12-20T04:23:11;99382.80;;;6.84;87.84
56582;BME280;42463;52.214;21.238;2023-12-20T04:25:18;99390.34;;;6.83;87.84
56582;BME280;42463;52.214;21.238;2023-12-20T04:27:25;99394.15;;;6.82;87.83
56582;BME280;42463;52.214;21.238;2023-12-20T04:29:31;99393.48;;;6.81;87.90
56582;BME280;42463;52.214;21.238;2023-12-20T04:31:37;99379.89;;;6.79;88.10
56582;BME280;42463;52.214;21.238;2023-12-20T04:33:44;99386.73;;;6.79;88.15
56582;BME280;42463;52.214;21.238;2023-12-20T04:35:50;99392.11;;;6.77;88.07
56582;BME280;42463;52.214;21.238;2023-12-20T04:37:57;99385.58;;;6.76;88.50
56582;BME280;42463;52.214;21.238;2023-12-20T04:40:07;99376.89;;;6.76;88.49
56582;BME280;42463;52.214;21.238;2023-12-20T04:42:14;99378.75;;;6.78;88.53
56582;BME280;42463;52.214;21.238;2023-12-20T04:44:20;99380.06;;;6.79;88.59
56582;BME280;42463;52.214;21.238;2023-12-20T04:46:26;99382.71;;;6.81;88.50
56582;BME280;42463;52.214;21.238;2023-12-20T04:48:32;99387.73;;;6.81;88.51
56582;BME280;42463;52.214;21.238;2023-12-20T04:50:39;99388.10;;;6.81;88.32
56582;BME280;42463;52.214;21.238;2023-12-20T04:52:45;99387.02;;;6.81;88.47
56582;BME280;42463;52.214;21.238;2023-12-20T04:54:51;99387.98;;;6.80;88.29
56582;BME280;42463;52.214;21.238;2023-12-20T04:56:57;99384.21;;;6.79;88.45
56582;BME280;42463;52.214;21.238;2023-12-20T04:59:04;99389.64;;;6.78;88.28
56582;BME280;42463;52.214;21.238;2023-12-20T05:01:10;99387.98;;;6.78;88.44
56582;BME280;42463;52.214;21.238;2023-12-20T05:03:17;99388.73;;;6.79;88.59
56582;BME280;42463;52.214;21.238;2023-12-20T05:05:24;99385.40;;;6.80;88.56
56582;BME280;42463;52.214;21.238;2023-12-20T05:07:30;99384.60;;;6.80;88.53
56582;BME280;42463;52.214;21.238;2023-12-20T05:09:39;99383.32;;;6.82;88.69
56582;BME280;42463;52.214;21.238;2023-12-20T05:11:46;99378.53;;;6.83;88.68
56582;BME280;42463;52.214;21.238;2023-12-20T05:13:52;99377.66;;;6.83;88.64
56582;BME280;42463;52.214;21.238;2023-12-20T05:15:59;99370.83;;;6.83;88.68
56582;BME280;42463;52.214;21.238;2023-12-20T05:18:06;99373.15;;;6.84;88.71
56582;BME280;42463;52.214;21.238;2023-12-20T05:20:12;99372.39;;;6.84;88.65
56582;BME280;42463;52.214;21.238;2023-12-20T05:22:18;99369.55;;;6.86;88.84
56582;BME280;42463;52.214;21.238;2023-12-20T05:24:25;99365.84;;;6.87;88.64
56582;BME280;42463;52.214;21.238;2023-12-20T05:26:31;99362.77;;;6.86;88.67
56582;BME280;42463;52.214;21.238;2023-12-20T05:28:37;99365.45;;;6.86;88.63
56582;BME280;42463;52.214;21.238;2023-12-20T05:30:44;99368.74;;;6.86;88.62
56582;BME280;42463;52.214;21.238;2023-12-20T05:32:50;99366.73;;;6.84;88.53
56582;BME280;42463;52.214;21.238;2023-12-20T05:34:56;99361.70;;;6.82;88.58
56582;BME280;42463;52.214;21.238;2023-12-20T05:37:02;99359.52;;;6.81;88.57
56582;BME280;42463;52.214;21.238;2023-12-20T05:39:09;99362.64;;;6.79;88.62
56582;BME280;42463;52.214;21.238;2023-12-20T05:41:15;99361.35;;;6.79;88.85
56582;BME280;42463;52.214;21.238;2023-12-20T05:43:22;99361.73;;;6.79;88.72
56582;BME280;42463;52.214;21.238;2023-12-20T05:45:29;99363.12;;;6.79;88.67
56582;BME280;42463;52.214;21.238;2023-12-20T05:47:35;99362.21;;;6.79;88.72
56582;BME280;42463;52.214;21.238;2023-12-20T05:49:41;99368.52;;;6.79;88.99
56582;BME280;42463;52.214;21.238;2023-12-20T05:51:48;99368.14;;;6.79;88.72
56582;BME280;42463;52.214;21.238;2023-12-20T05:53:54;99365.11;;;6.78;88.77
56582;BME280;42463;52.214;21.238;2023-12-20T05:56:01;99364.79;;;6.78;88.88
56582;BME280;42463;52.214;21.238;2023-12-20T05:58:07;99362.65;;;6.80;88.92
56582;BME280;42463;52.214;21.238;2023-12-20T06:00:15;99360.77;;;6.82;88.91
56582;BME280;42463;52.214;21.238;2023-12-20T06:02:21;99363.48;;;6.83;88.92
56582;BME280;42463;52.214;21.238;2023-12-20T06:04:28;99362.31;;;6.84;89.05
56582;BME280;42463;52.214;21.238;2023-12-20T06:06:34;99358.92;;;6.84;88.92
56582;BME280;42463;52.214;21.238;2023-12-20T06:08:46;99359.58;;;6.86;89.00
56582;BME280;42463;52.214;21.238;2023-12-20T06:10:52;99359.91;;;6.87;88.77
56582;BME280;42463;52.214;21.238;2023-12-20T06:12:58;99359.75;;;6.87;88.74
56582;BME280;42463;52.214;21.238;2023-12-20T06:15:06;99361.89;;;6.85;88.59
56582;BME280;42463;52.214;21.238;2023-12-20T06:17:13;99365.05;;;6.83;88.75
56582;BME280;42463;52.214;21.238;2023-12-20T06:19:19;99365.74;;;6.82;88.55
56582;BME280;42463;52.214;21.238;2023-12-20T06:21:26;99363.31;;;6.81;88.61
56582;BME280;42463;52.214;21.238;2023-12-20T06:23:32;99364.86;;;6.80;88.82
56582;BME280;42463;52.214;21.238;2023-12-20T06:25:39;99363.84;;;6.81;88.93
56582;BME280;42463;52.214;21.238;2023-12-20T06:27:45;99370.21;;;6.83;88.79
56582;BME280;42463;52.214;21.238;2023-12-20T06:29:51;99371.15;;;6.83;88.93
56582;BME280;42463;52.214;21.238;2023-12-20T06:31:57;99371.75;;;6.84;88.99
56582;BME280;42463;52.214;21.238;2023-12-20T06:34:04;99370.88;;;6.84;88.81
56582;BME280;42463;52.214;21.238;2023-12-20T06:36:12;99372.81;;;6.83;88.64
56582;BME280;42463;52.214;21.238;2023-12-20T06:38:20;99372.58;;;6.81;88.70
56582;BME280;42463;52.214;21.238;2023-12-20T06:40:27;99373.33;;;6.81;88.83
56582;BME280;42463;52.214;21.238;2023-12-20T06:42:34;99367.44;;;6.79;88.72
56582;BME280;42463;52.214;21.238;2023-12-20T06:44:40;99363.34;;;6.79;88.79
56582;BME280;42463;52.214;21.238;2023-12-20T06:46:46;99366.33;;;6.77;88.61
56582;BME280;42463;52.214;21.238;2023-12-20T06:48:52;99362.73;;;6.77;88.72
56582;BME280;42463;52.214;21.238;2023-12-20T06:50:59;99364.71;;;6.77;88.70
56582;BME280;42463;52.214;21.238;2023-12-20T06:53:07;99367.21;;;6.78;88.73
56582;BME280;42463;52.214;21.238;2023-12-20T06:55:13;99370.55;;;6.78;88.94
56582;BME280;42463;52.214;21.238;2023-12-20T06:57:20;99366.14;;;6.79;88.76
56582;BME280;42463;52.214;21.238;2023-12-20T06:59:26;99370.39;;;6.78;88.66
56582;BME280;42463;52.214;21.238;2023-12-20T07:01:35;99369.94;;;6.75;88.51
56582;BME280;42463;52.214;21.238;2023-12-20T07:03:43;99366.25;;;6.72;88.67
56582;BME280;42463;52.214;21.238;2023-12-20T07:05:50;99369.90;;;6.72;88.72
56582;BME280;42463;52.214;21.238;2023-12-20T07:07:57;99364.90;;;6.72;88.94
56582;BME280;42463;52.214;21.238;2023-12-20T07:10:04;99368.95;;;6.72;88.89
56582;BME280;42463;52.214;21.238;2023-12-20T07:12:12;99368.58;;;6.74;89.01
56582;BME280;42463;52.214;21.238;2023-12-20T07:14:19;99367.70;;;6.78;89.28
56582;BME280;42463;52.214;21.238;2023-12-20T07:16:25;99368.10;;;6.81;89.16
56582;BME280;42463;52.214;21.238;2023-12-20T07:18:32;99370.70;;;6.82;88.83
56582;BME280;42463;52.214;21.238;2023-12-20T07:20:39;99369.63;;;6.83;88.78
56582;BME280;42463;52.214;21.238;2023-12-20T07:22:46;99373.67;;;6.83;88.81
56582;BME280;42463;52.214;21.238;2023-12-20T07:24:53;99372.49;;;6.84;88.66
56582;BME280;42463;52.214;21.238;2023-12-20T07:27:00;99370.56;;;6.85;88.68
56582;BME280;42463;52.214;21.238;2023-12-20T07:29:06;99371.91;;;6.85;88.59
56582;BME280;42463;52.214;21.238;2023-12-20T07:31:13;99377.36;;;6.85;88.67
56582;BME280;42463;52.214;21.238;2023-12-20T07:33:21;99382.31;;;6.84;88.41
56582;BME280;42463;52.214;21.238;2023-12-20T07:35:28;99373.14;;;6.83;88.59
56582;BME280;42463;52.214;21.238;2023-12-20T07:37:34;99376.86;;;6.83;88.56
56582;BME280;42463;52.214;21.238;2023-12-20T07:39:42;99374.41;;;6.82;88.60
56582;BME280;42463;52.214;21.238;2023-12-20T07:41:50;99369.94;;;6.81;88.62
56582;BME280;42463;52.214;21.238;2023-12-20T07:43:57;99370.27;;;6.82;88.79
56582;BME280;42463;52.214;21.238;2023-12-20T07:46:07;99368.35;;;6.84;88.62
56582;BME280;42463;52.214;21.238;2023-12-20T07:48:14;99372.29;;;6.85;88.85
56582;BME280;42463;52.214;21.238;2023-12-20T07:50:21;99372.90;;;6.87;88.52
56582;BME280;42463;52.214;21.238;2023-12-20T07:52:28;99370.52;;;6.85;88.30
56582;BME280;42463;52.214;21.238;2023-12-20T07:54:35;99369.65;;;6.85;88.58
56582;BME280;42463;52.214;21.238;2023-12-20T07:56:41;99370.64;;;6.86;88.66
56582;BME280;42463;52.214;21.238;2023-12-20T07:58:48;99369.70;;;6.90;88.88
56582;BME280;42463;52.214;21.238;2023-12-20T08:00:55;99368.09;;;6.91;88.74
56582;BME280;42463;52.214;21.238;2023-12-20T08:03:01;99364.56;;;6.89;88.62
56582;BME280;42463;52.214;21.238;2023-12-20T08:05:09;99366.06;;;6.87;88.38
56582;BME280;42463;52.214;21.238;2023-12-20T08:07:15;99368.30;;;6.85;88.58
56582;BME280;42463;52.214;21.238;2023-12-20T08:09:22;99372.13;;;6.85;88.74
56582;BME280;42463;52.214;21.238;2023-12-20T08:11:29;99371.27;;;6.85;88.66
56582;BME280;42463;52.214;21.238;2023-12-20T08:13:35;99373.64;;;6.85;88.78
56582;BME280;42463;52.214;21.238;2023-12-20T08:15:42;99373.42;;;6.86;88.77
56582;BME280;42463;52.214;21.238;2023-12-20T08:17:48;99367.23;;;6.87;88.85
56582;BME280;42463;52.214;21.238;2023-12-20T08:19:55;99363.97;;;6.88;88.84
56582;BME280;42463;52.214;21.238;2023-12-20T08:22:03;99367.09;;;6.87;88.72
56582;BME280;42463;52.214;21.238;2023-12-20T08:24:09;99366.54;;;6.86;88.75
56582;BME280;42463;52.214;21.238;2023-12-20T08:26:19;99364.60;;;6.87;88.78
56582;BME280;42463;52.214;21.238;2023-12-20T08:28:28;99369.23;;;6.86;88.85
56582;BME280;42463;52.214;21.238;2023-12-20T08:30:36;99366.96;;;6.86;88.65
56582;BME280;42463;52.214;21.238;2023-12-20T08:32:42;99362.70;;;6.87;88.94
56582;BME280;42463;52.214;21.238;2023-12-20T08:34:48;99362.18;;;6.87;88.95
56582;BME280;42463;52.214;21.238;2023-12-20T08:36:55;99364.82;;;6.87;88.71
56582;BME280;42463;52.214;21.238;2023-12-20T08:39:01;99364.73;;;6.85;88.62
56582;BME280;42463;52.214;21.238;2023-12-20T08:41:11;99367.44;;;6.84;88.73
56582;BME280;42463;52.214;21.238;2023-12-20T08:43:17;99369.05;;;6.84;88.73
56582;BME280;42463;52.214;21.238;2023-12-20T08:45:24;99366.95;;;6.85;88.83
56582;BME280;42463;52.214;21.238;2023-12-20T08:47:30;99366.42;;;6.85;88.77
56582;BME280;42463;52.214;21.238;2023-12-20T08:49:37;99369.17;;;6.85;88.68
56582;BME280;42463;52.214;21.238;2023-12-20T08:51:44;99367.14;;;6.88;88.81
56582;BME280;42463;52.214;21.238;2023-12-20T08:53:51;99368.02;;;6.89;88.54
56582;BME280;42463;52.214;21.238;2023-12-20T08:55:57;99370.08;;;6.90;88.64
56582;BME280;42463;52.214;21.238;2023-12-20T08:58:07;99367.66;;;6.91;88.68
56582;BME280;42463;52.214;21.238;2023-12-20T09:00:23;99369.83;;;6.92;88.71
56582;BME280;42463;52.214;21.238;2023-12-20T09:02:34;99364.06;;;6.93;88.81
56582;BME280;42463;52.214;21.238;2023-12-20T09:04:43;99357.45;;;6.95;88.76
56582;BME280;42463;52.214;21.238;2023-12-20T09:06:49;99353.42;;;6.98;88.84
56582;BME280;42463;52.214;21.238;2023-12-20T09:08:55;99351.02;;;6.99;88.53
56582;BME280;42463;52.214;21.238;2023-12-20T09:11:01;99350.32;;;7.00;88.68
56582;BME280;42463;52.214;21.238;2023-12-20T09:13:08;99347.85;;;7.01;88.59
56582;BME280;42463;52.214;21.238;2023-12-20T09:15:15;99344.92;;;7.00;88.34
56582;BME280;42463;52.214;21.238;2023-12-20T09:17:21;99346.16;;;6.99;88.29
56582;BME280;42463;52.214;21.238;2023-12-20T09:19:28;99339.64;;;6.99;88.39
56582;BME280;42463;52.214;21.238;2023-12-20T09:21:35;99341.86;;;7.00;88.27
56582;BME280;42463;52.214;21.238;2023-12-20T09:23:41;99338.08;;;7.00;88.27
56582;BME280;42463;52.214;21.238;2023-12-20T09:25:48;99342.00;;;6.98;88.10
56582;BME280;42463;52.214;21.238;2023-12-20T09:27:54;99334.46;;;6.94;87.93
56582;BME280;42463;52.214;21.238;2023-12-20T09:30:01;99332.20;;;6.92;88.20
56582;BME280;42463;52.214;21.238;2023-12-20T09:32:08;99329.08;;;6.94;88.62
56582;BME280;42463;52.214;21.238;2023-12-20T09:34:15;99328.33;;;6.94;88.34
56582;BME280;42463;52.214;21.238;2023-12-20T09:36:21;99325.08;;;6.93;88.12
56582;BME280;42463;52.214;21.238;2023-12-20T09:38:28;99320.37;;;6.91;88.18
56582;BME280;42463;52.214;21.238;2023-12-20T09:40:36;99315.64;;;6.92;88.50
56582;BME280;42463;52.214;21.238;2023-12-20T09:42:50;99315.23;;;6.94;88.23
56582;BME280;42463;52.214;21.238;2023-12-20T09:45:04;99311.45;;;6.94;88.41
56582;BME280;42463;52.214;21.238;2023-12-20T09:47:17;99309.33;;;6.93;88.14
56582;BME280;42463;52.214;21.238;2023-12-20T09:49:27;99305.23;;;6.91;88.20
56582;BME280;42463;52.214;21.238;2023-12-20T09:51:34;99303.54;;;6.91;88.21
56582;BME280;42463;52.214;21.238;2023-12-20T09:53:43;99304.84;;;6.90;88.26
56582;BME280;42463;52.214;21.238;2023-12-20T09:55:51;99303.92;;;6.91;88.34
56582;BME280;42463;52.214;21.238;2023-12-20T09:57:59;99301.88;;;6.91;88.54
56582;BME280;42463;52.214;21.238;2023-12-20T10:00:08;99299.58;;;6.93;88.53
56582;BME280;42463;52.214;21.238;2023-12-20T10:02:19;99298.23;;;6.94;88.20
56582;BME280;42463;52.214;21.238;2023-12-20T10:04:34;99290.30;;;6.93;88.40
56582;BME280;42463;52.214;21.238;2023-12-20T10:06:42;99293.05;;;6.93;88.21
56582;BME280;42463;52.214;21.238;2023-12-20T10:08:49;99292.56;;;6.93;88.28
56582;BME280;42463;52.214;21.238;2023-12-20T10:10:56;99295.48;;;6.93;88.41
56582;BME280;42463;52.214;21.238;2023-12-20T10:13:09;99295.54;;;6.94;88.42
56582;BME280;42463;52.214;21.238;2023-12-20T10:15:16;99292.64;;;6.97;88.46
56582;BME280;42463;52.214;21.238;2023-12-20T10:17:23;99296.16;;;6.97;88.34
56582;BME280;42463;52.214;21.238;2023-12-20T10:19:34;99294.27;;;6.97;88.03
56582;BME280;42463;52.214;21.238;2023-12-20T10:21:40;99296.98;;;6.98;88.10
56582;BME280;42463;52.214;21.238;2023-12-20T10:23:48;99296.77;;;6.99;88.43
56582;BME280;42463;52.214;21.238;2023-12-20T10:25:59;99292.78;;;7.01;88.37
56582;BME280;42463;52.214;21.238;2023-12-20T10:28:14;99289.13;;;7.01;88.23
56582;BME280;42463;52.214;21.238;2023-12-20T10:30:23;99288.46;;;7.00;88.30
56582;BME280;42463;52.214;21.238;2023-12-20T10:32:30;99291.72;;;6.96;88.03
56582;BME280;42463;52.214;21.238;2023-12-20T10:34:39;99287.88;;;6.92;88.01
56582;BME280;42463;52.214;21.238;2023-12-20T10:36:47;99289.90;;;6.90;88.02
56582;BME280;42463;52.214;21.238;2023-12-20T10:38:54;99287.45;;;6.87;88.34
56582;BME280;42463;52.214;21.238;2023-12-20T10:41:03;99282.58;;;6.84;88.32
56582;BME280;42463;52.214;21.238;2023-12-20T10:43:12;99278.26;;;6.83;88.63
56582;BME280;42463;52.214;21.238;2023-12-20T10:45:18;99278.25;;;6.83;88.50
56582;BME280;42463;52.214;21.238;2023-12-20T10:47:26;99276.41;;;6.81;88.61
56582;BME280;42463;52.214;21.238;2023-12-20T10:49:33;99278.67;;;6.82;88.75
56582;BME280;42463;52.214;21.238;2023-12-20T10:51:42;99273.94;;;6.83;88.76
56582;BME280;42463;52.214;21.238;2023-12-20T10:53:52;99280.05;;;6.84;88.93
56582;BME280;42463;52.214;21.238;2023-12-20T10:56:01;99277.98;;;6.85;88.87
56582;BME280;42463;52.214;21.238;2023-12-20T10:58:10;99277.84;;;6.85;88.73
56582;BME280;42463;52.214;21.238;2023-12-20T11:00:17;99272.34;;;6.85;88.69
56582;BME280;42463;52.214;21.238;2023-12-20T11:02:26;99271.88;;;6.88;88.85
56582;BME280;42463;52.214;21.238;2023-12-20T11:04:47;99265.42;;;6.91;88.91
56582;BME280;42463;52.214;21.238;2023-12-20T11:06:58;99262.80;;;6.92;88.87
56582;BME280;42463;52.214;21.238;2023-12-20T11:09:14;99261.42;;;6.96;89.19
56582;BME280;42463;52.214;21.238;2023-12-20T11:11:35;99261.05;;;6.96;88.59
56582;BME280;42463;52.214;21.238;2023-12-20T11:13:48;99255.92;;;6.96;88.47
56582;BME280;42463;52.214;21.238;2023-12-20T11:15:59;99245.34;;;6.95;88.47
56582;BME280;42463;52.214;21.238;2023-12-20T11:18:07;99241.20;;;6.96;88.64
56582;BME280;42463;52.214;21.238;2023-12-20T11:20:14;99237.96;;;6.96;88.45
56582;BME280;42463;52.214;21.238;2023-12-20T11:22:21;99236.23;;;6.94;88.31
56582;BME280;42463;52.214;21.238;2023-12-20T11:24:28;99233.09;;;6.93;88.47
56582;BME280;42463;52.214;21.238;2023-12-20T11:26:34;99228.23;;;6.92;88.34
56582;BME280;42463;52.214;21.238;2023-12-20T11:28:40;99227.53;;;6.92;88.50
56582;BME280;42463;52.214;21.238;2023-12-20T11:30:52;99222.84;;;6.92;88.74
56582;BME280;42463;52.214;21.238;2023-12-20T11:33:03;99221.19;;;6.94;88.62
56582;BME280;42463;52.214;21.238;2023-12-20T11:35:20;99221.89;;;6.95;88.48
56582;BME280;42463;52.214;21.238;2023-12-20T11:37:31;99223.46;;;6.97;88.58
56582;BME280;42463;52.214;21.238;2023-12-20T11:39:38;99219.52;;;6.97;88.68
56582;BME280;42463;52.214;21.238;2023-12-20T11:41:45;99217.27;;;6.97;88.55
56582;BME280;42463;52.214;21.238;2023-12-20T11:43:54;99216.19;;;6.98;88.72
56582;BME280;42463;52.214;21.238;2023-12-20T11:46:05;99206.44;;;6.98;88.51
56582;BME280;42463;52.214;21.238;2023-12-20T11:48:12;99205.41;;;6.99;88.43
56582;BME280;42463;52.214;21.238;2023-12-20T11:50:20;99198.13;;;6.97;88.20
56582;BME280;42463;52.214;21.238;2023-12-20T11:52:27;99200.17;;;6.97;88.38
56582;BME280;42463;52.214;21.238;2023-12-20T11:54:33;99198.60;;;6.96;88.35
56582;BME280;42463;52.214;21.238;2023-12-20T11:56:40;99200.42;;;6.95;88.21
56582;BME280;42463;52.214;21.238;2023-12-20T11:58:46;99199.52;;;6.95;88.43
56582;BME280;42463;52.214;21.238;2023-12-20T12:00:53;99194.55;;;6.95;88.46
56582;BME280;42463;52.214;21.238;2023-12-20T12:03:01;99188.63;;;6.97;88.73
56582;BME280;42463;52.214;21.238;2023-12-20T12:05:10;99185.63;;;7.00;88.79
56582;BME280;42463;52.214;21.238;2023-12-20T12:07:16;99184.39;;;7.00;88.42
56582;BME280;42463;52.214;21.238;2023-12-20T12:09:23;99183.27;;;7.00;88.24
56582;BME280;42463;52.214;21.238;2023-12-20T12:11:29;99184.02;;;7.01;88.29
56582;BME280;42463;52.214;21.238;2023-12-20T12:13:35;99177.78;;;6.97;87.79
56582;BME280;42463;52.214;21.238;2023-12-20T12:15:41;99175.12;;;6.92;87.51
56582;BME280;42463;52.214;21.238;2023-12-20T12:17:55;99170.06;;;6.86;87.60
56582;BME280;42463;52.214;21.238;2023-12-20T12:20:06;99171.51;;;6.84;87.89
56582;BME280;42463;52.214;21.238;2023-12-20T12:22:14;99170.64;;;6.83;88.07
56582;BME280;42463;52.214;21.238;2023-12-20T12:24:22;99168.48;;;6.81;88.07
56582;BME280;42463;52.214;21.238;2023-12-20T12:26:32;99167.55;;;6.80;88.34
56582;BME280;42463;52.214;21.238;2023-12-20T12:28:41;99169.38;;;6.80;88.27
56582;BME280;42463;52.214;21.238;2023-12-20T12:30:58;99160.42;;;6.78;88.13
56582;BME280;42463;52.214;21.238;2023-12-20T12:33:07;99157.76;;;6.74;88.02
56582;BME280;42463;52.214;21.238;2023-12-20T12:35:13;99156.40;;;6.72;88.44
56582;BME280;42463;52.214;21.238;2023-12-20T12:37:21;99151.76;;;6.71;88.46
56582;BME280;42463;52.214;21.238;2023-12-20T12:39:29;99153.69;;;6.69;88.49
56582;BME280;42463;52.214;21.238;2023-12-20T12:41:35;99152.02;;;6.69;88.55
56582;BME280;42463;52.214;21.238;2023-12-20T12:43:41;99142.78;;;6.66;88.42
56582;BME280;42463;52.214;21.238;2023-12-20T12:45:48;99147.94;;;6.63;88.30
56582;BME280;42463;52.214;21.238;2023-12-20T12:47:54;99144.84;;;6.60;88.54
56582;BME280;42463;52.214;21.238;2023-12-20T12:50:01;99151.14;;;6.59;88.41
56582;BME280;42463;52.214;21.238;2023-12-20T12:52:08;99155.88;;;6.58;88.54
56582;BME280;42463;52.214;21.238;2023-12-20T12:54:14;99147.45;;;6.56;88.34
56582;BME280;42463;52.214;21.238;2023-12-20T12:56:24;99144.29;;;6.56;88.22
56582;BME280;42463;52.214;21.238;2023-12-20T12:58:31;99139.59;;;6.56;88.26
56582;BME280;42463;52.214;21.238;2023-12-20T13:00:42;99147.45;;;6.56;87.83
56582;BME280;42463;52.214;21.238;2023-12-20T13:02:48;99151.42;;;6.53;87.54
56582;BME280;42463;52.214;21.238;2023-12-20T13:04:55;99154.30;;;6.50;87.28
56582;BME280;42463;52.214;21.238;2023-12-20T13:07:02;99150.46;;;6.48;87.36
56582;BME280;42463;52.214;21.238;2023-12-20T13:09:08;99151.38;;;6.46;87.24
56582;BME280;42463;52.214;21.238;2023-12-20T13:11:15;99144.68;;;6.45;87.35
56582;BME280;42463;52.214;21.238;2023-12-20T13:13:21;99142.54;;;6.47;87.44
56582;BME280;42463;52.214;21.238;2023-12-20T13:15:28;99144.59;;;6.47;87.35